Time;durP1;ratioP1;P1;durP2;ratioP2;P2;SDS_P1;SDS_P2;PMS_P1;PMS_P2;Temp;Humidity;BMP_temperature;BMP_pressure;BME280_temperature;BME280_humidity;BME280_pressure;Samples;Min_cycle;Max_cycle;Signal;HPM_P1;HPM_P2
2023/10/31 00:01:49;;;;;;;7.53;4.47;;;11.20;99.90;;;;;;5024001;28;20070;-63
2023/10/31 00:04:15;;;;;;;9.18;5.28;;;11.20;99.90;;;;;;5028933;28;20036;-63
2023/10/31 00:06:41;;;;;;;9.15;4.53;;;11.20;99.90;;;;;;5023005;28;20482;-63
2023/10/31 00:09:06;;;;;;;9.50;4.40;;;11.20;99.90;;;;;;5028345;28;20040;-63
2023/10/31 00:11:32;;;;;;;8.23;4.70;;;11.20;99.90;;;;;;5021467;28;20124;-63
2023/10/31 00:13:57;;;;;;;12.40;4.75;;;11.20;99.90;;;;;;5028954;28;20021;-63
2023/10/31 00:16:23;;;;;;;8.25;4.10;;;11.20;99.90;;;;;;5018253;28;20527;-63
2023/10/31 00:18:49;;;;;;;6.78;4.25;;;11.20;99.90;;;;;;5009610;28;20029;-63
2023/10/31 00:21:14;;;;;;;10.10;5.35;;;11.20;99.90;;;;;;5027670;28;20032;-63
2023/10/31 00:23:47;;;;;;;10.27;5.13;;;11.10;99.90;;;;;;5016966;28;20030;-63
2023/10/31 00:26:13;;;;;;;9.10;4.95;;;11.20;99.90;;;;;;5016605;28;20053;-63
2023/10/31 00:28:38;;;;;;;8.82;4.93;;;11.20;99.90;;;;;;5009328;28;20061;-63
2023/10/31 00:31:06;;;;;;;8.57;4.22;;;11.10;99.90;;;;;;5027574;28;20038;-63
2023/10/31 00:33:31;;;;;;;7.88;4.32;;;11.20;99.90;;;;;;5007798;28;20033;-64
2023/10/31 00:35:57;;;;;;;7.70;4.55;;;11.10;99.90;;;;;;5024729;28;20045;-63
2023/10/31 00:38:23;;;;;;;8.07;4.45;;;11.10;99.90;;;;;;5008812;28;20120;-63
2023/10/31 00:40:48;;;;;;;10.68;4.90;;;11.20;99.90;;;;;;5027458;28;20397;-64
2023/10/31 00:43:13;;;;;;;5.40;4.35;;;11.20;99.90;;;;;;5028368;28;20033;-63
2023/10/31 00:45:39;;;;;;;8.48;4.22;;;11.20;99.90;;;;;;5011991;28;20045;-63
2023/10/31 00:48:05;;;;;;;13.25;5.22;;;11.10;99.90;;;;;;5026617;28;20362;-63
2023/10/31 00:50:30;;;;;;;10.02;4.85;;;11.10;99.90;;;;;;5009599;28;20042;-63
2023/10/31 00:52:56;;;;;;;8.57;4.65;;;11.10;99.90;;;;;;5027496;28;20029;-63
2023/10/31 00:55:21;;;;;;;5.95;4.10;;;11.10;99.90;;;;;;5028185;28;20044;-63
2023/10/31 00:57:47;;;;;;;6.35;3.80;;;11.10;99.90;;;;;;5020831;28;20034;-63
2023/10/31 01:00:13;;;;;;;10.93;4.82;;;11.10;99.90;;;;;;5028371;28;20401;-63
2023/10/31 01:02:38;;;;;;;11.48;4.90;;;11.10;99.90;;;;;;5017866;28;20025;-63
2023/10/31 01:05:04;;;;;;;8.77;4.57;;;11.10;99.90;;;;;;5028227;28;20052;-63
2023/10/31 01:07:29;;;;;;;9.75;4.13;;;11.10;99.90;;;;;;5012065;28;20090;-63
2023/10/31 01:09:55;;;;;;;7.30;4.47;;;11.10;99.90;;;;;;5028405;28;20025;-62
2023/10/31 01:12:20;;;;;;;9.63;4.93;;;11.10;99.90;;;;;;5009455;28;20249;-63
2023/10/31 01:14:46;;;;;;;7.05;4.35;;;11.00;99.90;;;;;;5026364;28;20025;-63
2023/10/31 01:17:11;;;;;;;9.40;3.83;;;11.10;99.90;;;;;;5008915;28;20123;-63
2023/10/31 01:19:37;;;;;;;7.65;4.60;;;11.10;99.90;;;;;;5026984;28;20052;-63
2023/10/31 01:22:02;;;;;;;8.05;4.57;;;11.00;99.90;;;;;;5032019;28;20115;-63
2023/10/31 01:24:28;;;;;;;9.88;4.05;;;11.10;99.90;;;;;;5020725;28;20397;-63
2023/10/31 01:26:53;;;;;;;9.57;4.55;;;11.00;99.90;;;;;;5012515;28;20379;-64
2023/10/31 01:29:19;;;;;;;7.55;4.03;;;11.00;99.90;;;;;;5030702;28;20052;-61
2023/10/31 01:31:45;;;;;;;9.13;4.22;;;11.00;99.90;;;;;;5012388;28;20026;-62
2023/10/31 01:34:11;;;;;;;13.18;4.43;;;11.00;99.90;;;;;;5030551;28;20029;-63
2023/10/31 01:36:36;;;;;;;7.25;4.20;;;11.00;99.90;;;;;;5017143;28;20080;-63
2023/10/31 01:39:02;;;;;;;8.85;4.90;;;11.00;99.90;;;;;;5030562;28;20065;-64
2023/10/31 01:41:27;;;;;;;8.38;5.35;;;11.00;99.90;;;;;;5031837;28;20080;-63
2023/10/31 01:43:53;;;;;;;8.30;5.45;;;11.00;99.90;;;;;;5015927;28;20082;-63
2023/10/31 01:46:18;;;;;;;7.50;5.03;;;11.00;99.90;;;;;;5031677;28;20037;-63
2023/10/31 01:48:44;;;;;;;9.38;5.10;;;11.00;99.90;;;;;;5016156;28;20037;-63
2023/10/31 01:51:10;;;;;;;10.32;4.75;;;11.00;99.90;;;;;;5030360;28;20025;-63
2023/10/31 01:53:36;;;;;;;9.85;5.90;;;11.00;99.90;;;;;;5013115;28;20366;-63
2023/10/31 01:56:03;;;;;;;8.95;4.72;;;10.90;99.90;;;;;;5031448;28;20389;-63
2023/10/31 01:58:34;;;;;;;10.30;5.07;;;10.90;99.90;;;;;;5013412;28;20034;-63
2023/10/31 02:01:00;;;;;;;11.35;5.43;;;10.90;99.90;;;;;;5031329;28;20112;-64
2023/10/31 02:03:27;;;;;;;8.32;5.15;;;11.00;99.90;;;;;;5013183;28;20030;-63
2023/10/31 02:05:53;;;;;;;6.57;4.45;;;10.90;99.90;;;;;;5030967;28;20041;-63
2023/10/31 02:08:19;;;;;;;13.65;5.28;;;10.90;99.90;;;;;;5012288;28;20034;-63
2023/10/31 02:10:45;;;;;;;10.75;5.03;;;10.90;99.90;;;;;;5031069;28;20028;-63
2023/10/31 02:13:18;;;;;;;9.70;5.68;;;10.90;99.90;;;;;;5011816;28;20037;-63
2023/10/31 02:15:44;;;;;;;12.52;5.60;;;10.90;99.90;;;;;;5011373;28;20041;-63
2023/10/31 02:18:10;;;;;;;8.82;5.25;;;10.90;99.90;;;;;;5030189;28;20108;-64
2023/10/31 02:20:36;;;;;;;8.13;4.72;;;10.90;99.90;;;;;;5029239;28;20176;-63
2023/10/31 02:23:02;;;;;;;9.45;5.20;;;11.00;99.90;;;;;;5011496;28;20120;-64
2023/10/31 02:25:28;;;;;;;8.45;5.15;;;10.90;99.90;;;;;;5024540;28;20065;-63
2023/10/31 02:27:53;;;;;;;8.52;4.97;;;10.90;99.90;;;;;;5016457;28;20486;-63
2023/10/31 02:30:19;;;;;;;9.13;5.22;;;11.00;99.90;;;;;;5027999;28;20396;-63
2023/10/31 02:32:44;;;;;;;9.05;5.40;;;11.00;99.90;;;;;;5022348;28;20026;-64
2023/10/31 02:35:10;;;;;;;6.75;5.15;;;11.00;99.90;;;;;;5020064;28;20529;-63
2023/10/31 02:37:36;;;;;;;8.57;4.75;;;11.00;99.90;;;;;;5025815;28;20452;-63
2023/10/31 02:40:02;;;;;;;9.30;5.07;;;11.00;99.90;;;;;;5009774;28;20037;-62
2023/10/31 02:42:27;;;;;;;10.68;5.80;;;11.00;99.90;;;;;;5025986;28;20025;-62
2023/10/31 02:44:53;;;;;;;9.80;5.57;;;11.00;99.90;;;;;;5010785;28;20116;-62
2023/10/31 02:47:19;;;;;;;14.38;6.50;;;10.90;99.90;;;;;;5027506;28;20045;-63
2023/10/31 02:49:44;;;;;;;9.82;5.95;;;10.90;99.90;;;;;;5010901;28;20042;-63
2023/10/31 02:52:10;;;;;;;9.43;5.70;;;10.90;99.90;;;;;;5029230;28;20022;-68
2023/10/31 02:54:36;;;;;;;10.15;5.57;;;10.90;99.90;;;;;;5010969;28;20084;-66
2023/10/31 02:57:02;;;;;;;9.57;5.47;;;10.90;99.90;;;;;;5029156;28;20044;-66
2023/10/31 02:59:27;;;;;;;9.35;6.13;;;10.90;99.90;;;;;;5030246;28;20551;-66
2023/10/31 03:01:53;;;;;;;10.57;5.55;;;10.90;99.90;;;;;;5017559;28;20057;-66
2023/10/31 03:04:19;;;;;;;13.38;6.57;;;10.90;99.90;;;;;;5030141;28;20168;-66
2023/10/31 03:06:44;;;;;;;10.65;5.88;;;10.90;99.90;;;;;;5016186;28;20083;-66
2023/10/31 03:09:10;;;;;;;13.27;7.47;;;10.90;99.90;;;;;;5021616;28;20524;-66
2023/10/31 03:11:36;;;;;;;9.60;5.97;;;10.90;99.90;;;;;;5028712;28;20409;-66
2023/10/31 03:14:01;;;;;;;8.90;5.43;;;10.90;99.90;;;;;;5030221;28;20332;-66
2023/10/31 03:16:27;;;;;;;8.65;6.00;;;10.90;99.90;;;;;;5011875;28;20112;-66
2023/10/31 03:18:53;;;;;;;10.98;6.10;;;10.90;99.90;;;;;;5030044;28;20195;-66
2023/10/31 03:21:18;;;;;;;8.95;5.47;;;10.90;99.90;;;;;;5012123;28;20048;-66
2023/10/31 03:23:48;;;;;;;7.65;5.18;;;11.00;99.90;;;;;;5029655;28;20386;-66
2023/10/31 03:26:13;;;;;;;12.50;5.68;;;11.00;99.90;;;;;;5010715;28;20026;-65
2023/10/31 03:28:39;;;;;;;8.93;5.75;;;11.00;99.90;;;;;;5029584;28;20482;-66
2023/10/31 03:31:04;;;;;;;8.45;5.50;;;11.00;99.90;;;;;;5010425;28;20030;-65
2023/10/31 03:33:30;;;;;;;9.43;5.65;;;11.00;99.90;;;;;;5029399;28;20029;-66
2023/10/31 03:35:55;;;;;;;8.98;5.30;;;11.00;99.90;;;;;;5010006;28;20045;-65
2023/10/31 03:38:21;;;;;;;9.48;5.35;;;11.10;99.90;;;;;;5028197;28;20081;-67
2023/10/31 03:40:46;;;;;;;11.07;6.18;;;11.10;99.90;;;;;;5029351;28;20033;-66
2023/10/31 03:43:12;;;;;;;9.70;6.20;;;11.10;99.90;;;;;;5026475;28;20034;-66
2023/10/31 03:45:37;;;;;;;9.07;6.35;;;11.10;99.90;;;;;;5008739;28;20034;-66
2023/10/31 03:48:03;;;;;;;10.05;6.30;;;11.10;99.90;;;;;;5026954;28;20044;-66
2023/10/31 03:50:29;;;;;;;8.68;6.07;;;11.10;99.90;;;;;;5029073;28;20056;-66
2023/10/31 03:52:54;;;;;;;8.77;5.70;;;11.10;99.90;;;;;;5024859;28;20723;-67
2023/10/31 03:55:19;;;;;;;8.52;5.80;;;11.10;99.90;;;;;;5029050;28;20534;-66
2023/10/31 03:57:45;;;;;;;9.55;5.47;;;11.10;99.90;;;;;;5023482;28;20025;-66
2023/10/31 04:00:11;;;;;;;9.07;5.72;;;11.20;99.90;;;;;;5029117;28;20064;-66
2023/10/31 04:02:38;;;;;;;8.77;5.70;;;11.20;99.90;;;;;;5022188;28;20025;-65
2023/10/31 04:05:04;;;;;;;5.75;4.68;;;11.20;99.90;;;;;;5028973;28;20521;-65
2023/10/31 04:07:30;;;;;;;9.00;5.55;;;11.20;99.90;;;;;;5021135;28;20387;-66
2023/10/31 04:09:56;;;;;;;11.95;5.90;;;11.30;99.90;;;;;;5029040;28;20493;-66
2023/10/31 04:12:21;;;;;;;9.48;6.03;;;11.20;99.90;;;;;;5019794;28;20024;-66
2023/10/31 04:14:47;;;;;;;8.63;5.97;;;11.30;99.90;;;;;;5009743;28;20029;-66
2023/10/31 04:17:12;;;;;;;13.82;6.38;;;11.30;99.90;;;;;;5026196;28;20033;-66
2023/10/31 04:19:38;;;;;;;8.57;6.03;;;11.30;99.90;;;;;;5008026;28;20490;-66
2023/10/31 04:22:03;;;;;;;9.15;6.53;;;11.30;99.90;;;;;;5026061;28;20021;-66
2023/10/31 04:24:29;;;;;;;11.88;6.90;;;11.20;99.90;;;;;;5028706;28;20017;-66
2023/10/31 04:26:54;;;;;;;8.70;6.25;;;11.30;99.90;;;;;;5024290;28;20546;-66
2023/10/31 04:29:20;;;;;;;12.32;5.95;;;11.30;99.90;;;;;;5027267;28;20034;-66
2023/10/31 04:31:45;;;;;;;8.60;6.65;;;11.30;99.90;;;;;;5021413;28;20029;-66
2023/10/31 04:34:11;;;;;;;9.05;6.63;;;11.30;99.90;;;;;;5027265;28;20026;-66
2023/10/31 04:36:36;;;;;;;9.90;6.78;;;11.40;99.90;;;;;;5016061;28;20033;-65
2023/10/31 04:39:02;;;;;;;10.10;7.05;;;11.30;99.90;;;;;;5009394;28;20112;-66
2023/10/31 04:41:28;;;;;;;11.48;7.35;;;11.30;99.90;;;;;;5027330;28;20480;-66
2023/10/31 04:43:53;;;;;;;10.85;6.78;;;11.30;99.90;;;;;;5009413;28;20034;-66
2023/10/31 04:46:19;;;;;;;10.90;7.72;;;11.40;99.90;;;;;;5027277;28;20048;-66
2023/10/31 04:48:44;;;;;;;9.90;6.68;;;11.40;99.90;;;;;;5009445;28;20037;-67
2023/10/31 04:51:10;;;;;;;9.00;6.78;;;11.40;99.90;;;;;;5025723;28;20540;-66
2023/10/31 04:53:35;;;;;;;9.05;6.35;;;11.40;99.90;;;;;;5007926;28;20490;-66
2023/10/31 04:56:01;;;;;;;10.40;6.85;;;11.40;99.90;;;;;;5031391;28;20401;-66
2023/10/31 04:58:26;;;;;;;10.55;7.80;;;11.40;99.90;;;;;;5023416;28;20409;-66
2023/10/31 05:00:52;;;;;;;11.15;7.50;;;11.40;99.90;;;;;;5031392;28;20470;-65
2023/10/31 05:03:17;;;;;;;7.75;6.68;;;11.40;99.90;;;;;;5032562;28;20253;-66
2023/10/31 05:05:43;;;;;;;9.20;6.95;;;11.40;99.90;;;;;;5018142;28;20647;-65
2023/10/31 05:08:08;;;;;;;13.75;7.65;;;11.40;99.90;;;;;;5031367;28;20060;-67
2023/10/31 05:10:34;;;;;;;10.85;7.38;;;11.40;99.90;;;;;;5017042;28;20022;-66
2023/10/31 05:13:02;;;;;;;10.73;7.53;;;11.50;99.90;;;;;;5031060;28;20116;-66
2023/10/31 05:15:27;;;;;;;9.95;6.88;;;11.50;99.90;;;;;;5014138;28;20091;-66
2023/10/31 05:17:53;;;;;;;12.00;7.22;;;11.50;99.90;;;;;;5032459;28;20025;-67
2023/10/31 05:20:19;;;;;;;11.60;7.70;;;11.50;99.90;;;;;;5012888;28;20029;-66
2023/10/31 05:22:44;;;;;;;10.73;6.40;;;11.50;99.90;;;;;;5032151;28;20025;-66
2023/10/31 05:25:10;;;;;;;12.57;8.05;;;11.50;99.90;;;;;;5012067;28;20037;-66
2023/10/31 05:27:35;;;;;;;14.23;8.13;;;11.50;99.90;;;;;;5031970;28;20053;-66
2023/10/31 05:30:01;;;;;;;12.00;8.30;;;11.50;99.90;;;;;;5012751;28;20095;-67
2023/10/31 05:32:26;;;;;;;12.70;7.90;;;11.50;99.90;;;;;;5031235;28;20034;-67
2023/10/31 05:34:52;;;;;;;15.48;9.75;;;11.50;99.90;;;;;;5019011;28;20517;-66
2023/10/31 05:37:17;;;;;;;10.40;7.72;;;11.50;99.90;;;;;;5024708;28;20036;-66
2023/10/31 05:39:43;;;;;;;12.40;8.88;;;11.50;99.90;;;;;;5012439;28;20204;-66
2023/10/31 05:42:08;;;;;;;16.90;9.25;;;11.50;99.90;;;;;;5030775;28;20030;-66
2023/10/31 05:44:33;;;;;;;14.13;8.70;;;11.50;99.90;;;;;;5030275;28;20449;-67
2023/10/31 05:46:59;;;;;;;12.50;9.13;;;11.50;99.90;;;;;;5027850;28;20037;-67
2023/10/31 05:49:25;;;;;;;10.48;7.85;;;11.50;99.90;;;;;;5031521;28;20025;-66
2023/10/31 05:51:51;;;;;;;13.55;8.35;;;11.50;99.90;;;;;;5023766;28;20113;-66
2023/10/31 05:54:17;;;;;;;11.27;7.85;;;11.50;99.90;;;;;;5031505;28;20033;-66
2023/10/31 05:56:44;;;;;;;15.35;8.60;;;11.50;99.90;;;;;;5025378;28;20029;-66
2023/10/31 05:59:10;;;;;;;15.68;8.45;;;11.50;99.90;;;;;;5031454;28;20029;-66
2023/10/31 06:01:36;;;;;;;13.35;9.50;;;11.60;99.90;;;;;;5024323;28;20029;-66
2023/10/31 06:04:01;;;;;;;14.10;9.30;;;11.50;99.90;;;;;;5031121;28;20039;-66
2023/10/31 06:06:27;;;;;;;18.75;10.02;;;11.60;99.90;;;;;;5021985;28;20041;-67
2023/10/31 06:08:52;;;;;;;16.17;9.23;;;11.60;99.90;;;;;;5011821;28;20125;-66
2023/10/31 06:11:18;;;;;;;18.17;10.63;;;11.60;99.90;;;;;;5029923;28;20033;-65
2023/10/31 06:13:43;;;;;;;11.98;8.73;;;11.60;99.90;;;;;;5010384;28;20030;-66
2023/10/31 06:16:09;;;;;;;14.40;8.50;;;11.60;99.90;;;;;;5029951;28;20444;-67
2023/10/31 06:18:35;;;;;;;15.10;9.10;;;11.60;99.90;;;;;;5011521;28;20494;-67
2023/10/31 06:21:00;;;;;;;15.77;9.73;;;11.60;99.90;;;;;;5028140;28;20033;-66
2023/10/31 06:23:25;;;;;;;13.82;9.38;;;11.60;99.90;;;;;;5011474;28;20033;-66
2023/10/31 06:25:51;;;;;;;15.48;9.25;;;11.60;99.90;;;;;;5029511;28;20186;-66
2023/10/31 06:28:17;;;;;;;12.95;8.35;;;11.60;99.90;;;;;;5030805;28;20029;-67
2023/10/31 06:30:42;;;;;;;10.90;7.90;;;11.70;99.90;;;;;;5016206;28;20151;-66
2023/10/31 06:33:08;;;;;;;12.48;7.75;;;11.70;99.90;;;;;;5030717;28;20497;-66
2023/10/31 06:35:34;;;;;;;11.60;7.95;;;11.70;99.90;;;;;;5014600;28;20034;-66
2023/10/31 06:38:01;;;;;;;12.65;8.60;;;11.70;99.90;;;;;;5027858;28;20024;-66
2023/10/31 06:40:26;;;;;;;15.10;9.90;;;11.70;99.90;;;;;;5013604;28;20025;-67
2023/10/31 06:42:52;;;;;;;13.65;8.52;;;11.70;99.90;;;;;;5029171;28;20025;-67
2023/10/31 06:45:18;;;;;;;12.55;9.00;;;11.70;99.90;;;;;;5012689;28;20030;-67
2023/10/31 06:47:44;;;;;;;18.38;10.13;;;11.70;99.90;;;;;;5030786;28;20057;-66
2023/10/31 06:50:09;;;;;;;14.75;8.93;;;11.70;99.90;;;;;;5009876;28;20034;-65
2023/10/31 06:52:35;;;;;;;15.75;9.65;;;11.70;99.90;;;;;;5030470;28;20505;-67
2023/10/31 06:55:01;;;;;;;12.00;7.97;;;11.80;99.90;;;;;;5010956;28;20033;-67
2023/10/31 06:57:26;;;;;;;16.88;10.05;;;11.80;99.90;;;;;;5029516;28;20021;-67
2023/10/31 06:59:52;;;;;;;13.57;9.23;;;11.80;99.90;;;;;;5009609;28;20054;-67
2023/10/31 07:02:18;;;;;;;14.15;8.43;;;11.80;99.90;;;;;;5029334;28;20035;-67
2023/10/31 07:04:43;;;;;;;12.30;8.18;;;11.80;99.90;;;;;;5030074;28;20406;-67
2023/10/31 07:07:09;;;;;;;13.48;8.10;;;11.80;99.90;;;;;;5027627;28;20045;-66
2023/10/31 07:09:34;;;;;;;11.13;7.72;;;11.90;99.90;;;;;;5029940;28;20091;-66
2023/10/31 07:12:00;;;;;;;9.38;6.72;;;11.90;99.90;;;;;;5026179;28;20034;-67
2023/10/31 07:14:25;;;;;;;8.80;6.47;;;12.00;99.90;;;;;;5029711;28;20030;-65
2023/10/31 07:16:51;;;;;;;10.30;7.68;;;11.90;99.90;;;;;;5024753;28;20064;-66
2023/10/31 07:19:16;;;;;;;9.35;7.13;;;12.00;99.90;;;;;;5029019;28;20036;-67
2023/10/31 07:21:42;;;;;;;7.20;5.75;;;12.00;99.90;;;;;;5022008;28;20560;-67
2023/10/31 07:24:08;;;;;;;8.88;6.70;;;12.00;99.90;;;;;;5029562;28;20053;-66
2023/10/31 07:26:35;;;;;;;11.77;6.38;;;12.10;99.90;;;;;;5020844;28;20029;-66
2023/10/31 07:29:00;;;;;;;8.35;5.95;;;12.10;99.90;;;;;;5029554;28;20025;-66
2023/10/31 07:31:26;;;;;;;7.78;6.07;;;12.10;99.90;;;;;;5021037;28;20263;-66
2023/10/31 07:33:52;;;;;;;7.93;5.82;;;12.20;99.90;;;;;;5010389;28;20138;-66
2023/10/31 07:36:17;;;;;;;9.70;5.78;;;12.20;99.90;;;;;;5025185;28;20041;-66
2023/10/31 07:38:42;;;;;;;8.20;6.53;;;12.30;99.90;;;;;;5010202;28;20061;-66
2023/10/31 07:41:09;;;;;;;8.50;5.82;;;12.30;99.90;;;;;;5028123;28;20034;-66
2023/10/31 07:43:34;;;;;;;6.93;5.57;;;12.40;99.90;;;;;;5010005;28;20026;-66
2023/10/31 07:46:00;;;;;;;6.68;5.00;;;12.40;99.90;;;;;;5028246;28;20143;-66
2023/10/31 07:48:25;;;;;;;5.97;4.22;;;12.40;99.90;;;;;;5029327;28;20021;-66
2023/10/31 07:50:51;;;;;;;5.88;4.57;;;12.50;99.90;;;;;;5014191;28;20390;-66
2023/10/31 07:53:17;;;;;;;7.90;4.72;;;12.40;99.90;;;;;;5029210;28;20056;-66
2023/10/31 07:55:42;;;;;;;6.63;4.10;;;12.40;99.90;;;;;;5014414;28;20025;-66
2023/10/31 07:58:09;;;;;;;4.43;3.50;;;12.50;99.90;;;;;;5029065;28;20060;-66
2023/10/31 08:00:35;;;;;;;5.15;3.78;;;12.50;99.90;;;;;;5013369;28;20025;-66
2023/10/31 08:03:01;;;;;;;5.68;3.10;;;12.50;99.90;;;;;;5028902;28;20513;-66
2023/10/31 08:05:27;;;;;;;5.20;3.50;;;12.50;99.90;;;;;;5012151;28;20029;-66
2023/10/31 08:07:52;;;;;;;4.07;3.00;;;12.50;99.90;;;;;;5026979;28;20022;-66
2023/10/31 08:10:18;;;;;;;3.17;2.58;;;12.50;99.90;;;;;;5010674;28;20434;-66
2023/10/31 08:12:43;;;;;;;2.72;2.22;;;12.50;99.90;;;;;;5028703;28;20405;-67
2023/10/31 08:15:09;;;;;;;2.55;1.90;;;12.60;99.90;;;;;;5008261;28;20320;-66
2023/10/31 08:17:35;;;;;;;2.95;1.70;;;12.50;99.90;;;;;;5028028;28;20036;-66
2023/10/31 08:20:03;;;;;;;1.95;1.65;;;12.50;99.90;;;;;;5028636;28;20026;-66
2023/10/31 08:22:28;;;;;;;2.25;1.60;;;12.50;99.90;;;;;;5021383;28;20048;-66
2023/10/31 08:24:54;;;;;;;2.40;1.55;;;12.50;99.90;;;;;;5028566;28;20509;-66
2023/10/31 08:27:19;;;;;;;2.85;2.15;;;12.50;99.90;;;;;;5023254;28;20037;-66
2023/10/31 08:29:45;;;;;;;1.98;1.60;;;12.40;99.90;;;;;;5027921;28;20091;-66
2023/10/31 08:32:10;;;;;;;3.13;1.40;;;12.40;99.90;;;;;;5022128;28;20037;-66
2023/10/31 08:34:36;;;;;;;1.67;1.38;;;12.40;99.90;;;;;;5023608;28;20064;-66
2023/10/31 08:37:02;;;;;;;1.70;1.40;;;12.30;99.90;;;;;;5014111;28;20386;-66
2023/10/31 08:39:27;;;;;;;1.30;1.10;;;12.30;99.90;;;;;;5028744;28;20432;-66
2023/10/31 08:41:57;;;;;;;1.85;1.20;;;12.30;99.90;;;;;;5019288;28;20029;-66
2023/10/31 08:44:23;;;;;;;2.47;1.23;;;12.40;99.90;;;;;;5008902;28;20409;-66
2023/10/31 08:46:48;;;;;;;1.20;1.10;;;12.50;99.90;;;;;;5025991;28;20030;-66
2023/10/31 08:49:16;;;;;;;2.25;0.95;;;12.70;99.90;;;;;;5009508;28;20045;-66
2023/10/31 08:51:42;;;;;;;2.28;1.10;;;12.70;99.90;;;;;;5025959;28;20073;-66
2023/10/31 08:54:08;;;;;;;2.80;0.90;;;12.70;99.90;;;;;;5009048;28;20069;-64
2023/10/31 08:56:34;;;;;;;2.22;1.10;;;12.80;99.90;;;;;;5027278;28;20052;-66
2023/10/31 08:59:00;;;;;;;1.10;1.00;;;12.80;99.90;;;;;;5028215;28;20061;-69
2023/10/31 09:01:26;;;;;;;1.10;0.80;;;12.80;99.90;;;;;;5015413;28;20021;-69
2023/10/31 09:03:52;;;;;;;1.45;0.90;;;12.80;99.90;;;;;;5028167;28;20118;-70
2023/10/31 09:06:18;;;;;;;2.42;0.70;;;12.80;99.90;;;;;;5014226;28;20104;-69
2023/10/31 09:08:43;;;;;;;1.65;0.88;;;12.80;99.90;;;;;;5026778;28;20544;-69
2023/10/31 09:11:09;;;;;;;2.70;1.00;;;12.80;99.90;;;;;;5013127;28;20052;-69
2023/10/31 09:13:34;;;;;;;3.72;0.90;;;12.80;99.90;;;;;;5028256;28;20030;-69
2023/10/31 09:16:00;;;;;;;0.50;0.50;;;12.80;99.90;;;;;;5010626;28;20040;-70
2023/10/31 09:18:25;;;;;;;7.07;1.60;;;12.70;99.90;;;;;;5028068;28;20040;-69
2023/10/31 09:20:51;;;;;;;2.25;0.80;;;12.70;99.90;;;;;;5013223;28;20104;-70
2023/10/31 09:23:17;;;;;;;1.25;0.77;;;12.60;99.90;;;;;;5028396;28;20113;-69
2023/10/31 09:25:46;;;;;;;0.93;0.85;;;12.70;99.90;;;;;;5027447;28;20324;-69
2023/10/31 09:28:12;;;;;;;2.40;0.82;;;12.60;99.90;;;;;;5028301;28;20025;-69
2023/10/31 09:30:37;;;;;;;0.60;0.60;;;12.60;99.90;;;;;;5008866;28;20506;-69
2023/10/31 09:33:03;;;;;;;0.85;0.77;;;12.70;99.90;;;;;;5026509;28;20038;-70
2023/10/31 09:35:28;;;;;;;1.48;0.98;;;12.70;99.90;;;;;;5008422;28;20053;-69
2023/10/31 09:37:54;;;;;;;1.08;0.68;;;12.70;99.90;;;;;;5023526;28;20033;-69
2023/10/31 09:40:21;;;;;;;0.63;0.60;;;12.70;99.90;;;;;;5027620;28;20037;-69
2023/10/31 09:42:47;;;;;;;1.35;0.70;;;12.70;99.90;;;;;;5029509;28;20029;-69
2023/10/31 09:45:13;;;;;;;0.63;0.47;;;12.80;99.90;;;;;;5031344;28;20047;-70
2023/10/31 09:47:42;;;;;;;0.73;0.55;;;12.80;99.90;;;;;;5028606;28;20501;-70
2023/10/31 09:50:09;;;;;;;0.45;0.45;;;12.90;99.90;;;;;;5027708;28;20033;-69
2023/10/31 09:52:35;;;;;;;1.02;0.60;;;13.00;99.90;;;;;;5027680;28;20024;-69
2023/10/31 09:55:01;;;;;;;0.50;0.50;;;13.00;99.90;;;;;;5031110;28;20033;-70
2023/10/31 09:57:27;;;;;;;0.55;0.40;;;12.90;99.90;;;;;;5026822;28;20047;-70
2023/10/31 09:59:53;;;;;;;2.80;0.90;;;12.90;99.90;;;;;;5031136;28;20037;-70
2023/10/31 10:02:18;;;;;;;0.88;0.60;;;12.80;99.90;;;;;;5025738;28;20399;-70
2023/10/31 10:04:44;;;;;;;0.68;0.55;;;12.80;99.90;;;;;;5031045;28;20033;-70
2023/10/31 10:07:16;;;;;;;1.25;0.75;;;12.70;99.90;;;;;;5024305;28;20087;-70
2023/10/31 10:09:42;;;;;;;1.02;0.70;;;12.70;99.90;;;;;;4991847;28;20453;-70
2023/10/31 10:12:11;;;;;;;0.80;0.55;;;12.60;99.90;;;;;;5029830;28;20052;-70
2023/10/31 10:14:37;;;;;;;2.05;0.60;;;12.60;99.90;;;;;;5030800;28;20029;-70
2023/10/31 10:17:14;;;;;;;0.65;0.45;;;12.60;99.90;;;;;;5023373;28;20044;-70
2023/10/31 10:19:40;;;;;;;0.70;0.50;;;12.50;99.90;;;;;;4991460;28;20037;-69
2023/10/31 10:22:05;;;;;;;0.65;0.63;;;12.50;99.90;;;;;;5027690;28;20052;-70
2023/10/31 10:24:31;;;;;;;3.83;0.70;;;12.50;99.90;;;;;;5030604;28;20536;-70
2023/10/31 10:26:56;;;;;;;2.05;0.65;;;12.50;99.90;;;;;;5022060;28;20069;-70
2023/10/31 10:29:24;;;;;;;1.42;1.00;;;12.60;99.90;;;;;;5011393;28;20036;-69
2023/10/31 10:31:49;;;;;;;1.60;1.00;;;12.60;99.90;;;;;;5028509;28;20036;-70
2023/10/31 10:34:16;;;;;;;1.38;0.88;;;12.70;99.90;;;;;;5012735;28;20116;-70
2023/10/31 10:36:47;;;;;;;0.88;0.88;;;12.80;99.90;;;;;;5024768;28;20304;-70
2023/10/31 10:39:18;;;;;;;1.10;0.77;;;12.80;99.90;;;;;;4991254;28;20491;-70
2023/10/31 10:41:45;;;;;;;2.25;0.90;;;12.90;99.90;;;;;;5009169;28;20044;-70
2023/10/31 10:44:13;;;;;;;0.80;0.80;;;13.00;99.90;;;;;;5010891;28;20030;-70
2023/10/31 10:46:40;;;;;;;1.05;0.80;;;13.20;99.90;;;;;;5029561;28;20080;-70
2023/10/31 10:49:07;;;;;;;1.13;0.73;;;13.30;99.90;;;;;;5009713;28;20033;-70
2023/10/31 10:51:45;;;;;;;1.23;0.82;;;13.40;99.90;;;;;;5027609;28;20026;-70
2023/10/31 10:54:33;;;;;;;3.00;1.10;;;13.50;99.90;;;;;;5030336;28;20433;-70
2023/10/31 10:57:06;;;;;;;1.48;1.02;;;13.50;99.90;;;;;;5012958;28;20033;-70
2023/10/31 10:59:41;;;;;;;1.58;0.95;;;13.50;99.90;;;;;;4990917;28;20280;-70
2023/10/31 11:02:08;;;;;;;1.50;1.00;;;13.70;99.90;;;;;;5028530;28;20025;-70
2023/10/31 11:04:34;;;;;;;1.42;0.90;;;13.80;99.90;;;;;;5028497;28;20121;-70
2023/10/31 11:07:00;;;;;;;1.13;1.02;;;13.90;99.40;;;;;;5021676;28;20037;-70
2023/10/31 11:09:26;;;;;;;3.65;1.02;;;13.90;98.80;;;;;;5009430;28;20449;-70
2023/10/31 11:11:53;;;;;;;1.17;0.98;;;14.00;98.50;;;;;;5028795;28;20540;-70
2023/10/31 11:14:19;;;;;;;1.23;1.08;;;14.00;98.40;;;;;;5010228;28;20076;-70
2023/10/31 11:16:51;;;;;;;3.35;0.90;;;14.00;98.20;;;;;;5028739;28;20025;-70
2023/10/31 11:19:17;;;;;;;1.20;1.10;;;13.90;97.80;;;;;;4990667;28;20030;-70
2023/10/31 11:21:57;;;;;;;0.98;0.95;;;13.90;98.00;;;;;;5025462;28;20025;-70
2023/10/31 11:24:23;;;;;;;1.05;0.98;;;13.90;97.70;;;;;;5029429;28;20068;-70
2023/10/31 11:26:52;;;;;;;2.67;1.55;;;13.90;97.00;;;;;;5019768;28;20029;-71
2023/10/31 11:29:18;;;;;;;1.17;1.08;;;13.90;97.10;;;;;;5010083;28;20084;-68
2023/10/31 11:31:43;;;;;;;1.65;1.00;;;14.00;96.80;;;;;;5028311;28;20497;-71
2023/10/31 11:34:09;;;;;;;3.80;1.50;;;14.10;95.10;;;;;;5010803;28;20080;-70
2023/10/31 11:36:38;;;;;;;2.63;1.20;;;14.10;95.40;;;;;;5023045;28;20037;-70
2023/10/31 11:39:25;;;;;;;1.85;1.00;;;14.20;95.30;;;;;;5029292;28;20037;-70
2023/10/31 11:41:54;;;;;;;1.58;1.40;;;14.30;94.00;;;;;;5018318;28;20035;-70
2023/10/31 11:44:26;;;;;;;2.72;1.30;;;14.40;94.80;;;;;;5009523;28;20510;-70
2023/10/31 11:46:52;;;;;;;2.47;1.40;;;14.30;93.80;;;;;;5027171;28;20037;-70
2023/10/31 11:49:38;;;;;;;1.63;1.52;;;14.30;94.10;;;;;;5008655;28;20026;-70
2023/10/31 11:52:14;;;;;;;1.35;1.13;;;14.20;93.70;;;;;;5011812;28;20573;-71
2023/10/31 11:54:40;;;;;;;2.80;1.20;;;14.10;94.10;;;;;;4989789;28;20034;-70
2023/10/31 11:57:06;;;;;;;2.95;1.17;;;14.00;93.80;;;;;;5027610;28;20029;-70
2023/10/31 11:59:38;;;;;;;3.40;1.13;;;13.90;94.40;;;;;;5028822;28;20022;-70
2023/10/31 12:02:18;;;;;;;1.38;1.27;;;13.90;94.60;;;;;;5020231;28;20029;-70
2023/10/31 12:04:43;;;;;;;1.63;1.17;;;13.80;94.70;;;;;;5028219;28;20032;-70
2023/10/31 12:07:09;;;;;;;1.30;1.20;;;13.70;95.20;;;;;;5020777;28;20192;-70
2023/10/31 12:09:46;;;;;;;2.15;1.30;;;13.60;95.30;;;;;;5027471;28;20501;-72
2023/10/31 12:12:12;;;;;;;1.50;1.30;;;13.60;94.90;;;;;;5015507;28;20056;-71
2023/10/31 12:14:38;;;;;;;1.67;0.95;;;13.50;95.60;;;;;;5008316;28;20057;-71
2023/10/31 12:17:07;;;;;;;2.55;1.50;;;13.50;95.80;;;;;;5028106;28;20026;-71
2023/10/31 12:19:33;;;;;;;1.40;0.85;;;13.60;95.50;;;;;;5028594;28;20417;-71
2023/10/31 12:21:58;;;;;;;2.70;1.33;;;13.60;95.70;;;;;;5018737;28;20738;-71
2023/10/31 12:24:24;;;;;;;2.03;1.45;;;13.70;95.50;;;;;;5009423;28;20042;-69
2023/10/31 12:26:51;;;;;;;1.20;1.10;;;13.60;95.60;;;;;;5027249;28;20409;-70
2023/10/31 12:29:18;;;;;;;1.23;1.00;;;13.60;95.50;;;;;;5009191;28;20025;-70
2023/10/31 12:31:47;;;;;;;2.17;0.82;;;13.60;95.50;;;;;;5026355;28;20148;-70
2023/10/31 12:34:14;;;;;;;2.05;1.20;;;13.60;95.40;;;;;;5009999;28;20510;-70
2023/10/31 12:36:40;;;;;;;1.23;1.10;;;13.60;95.30;;;;;;5022602;28;20056;-71
2023/10/31 12:39:09;;;;;;;1.63;0.90;;;13.60;95.40;;;;;;5028297;28;20104;-71